createdAt,value
2022-10-02T00:05:49.848Z,90.39
2022-10-02T00:15:57.281Z,90.54
2022-10-02T00:26:09.032Z,90.80
2022-10-02T00:36:27.289Z,91.00
2022-10-02T00:46:45.021Z,90.88
2022-10-02T00:57:01.312Z,90.93
2022-10-02T01:07:09.935Z,90.96
2022-10-02T01:17:25.738Z,91.01
2022-10-02T01:27:33.654Z,90.92
2022-10-02T01:37:45.544Z,90.95
2022-10-02T01:48:02.819Z,90.97
2022-10-02T01:58:22.343Z,90.97
2022-10-02T02:08:35.383Z,91.03
2022-10-02T02:18:47.638Z,91.12
2022-10-02T02:28:58.201Z,91.42
2022-10-02T02:39:08.120Z,91.72
2022-10-02T02:49:15.040Z,92.03
2022-10-02T02:59:24.235Z,92.21
2022-10-02T03:09:33.467Z,92.63
2022-10-02T03:19:48.233Z,92.75
2022-10-02T03:30:01.232Z,92.75
2022-10-02T03:40:09.443Z,92.93
2022-10-02T03:50:16.358Z,93.31
2022-10-02T04:00:25.607Z,93.63
2022-10-02T04:10:37.961Z,93.95
2022-10-02T04:20:51.568Z,94.26
2022-10-02T04:30:58.168Z,94.40
2022-10-02T04:41:18.710Z,94.58
2022-10-02T04:51:39.672Z,94.70
2022-10-02T05:01:59.781Z,94.55
2022-10-02T05:12:25.458Z,94.43
2022-10-02T05:22:46.322Z,94.41
2022-10-02T05:33:25.319Z,94.34
2022-10-02T05:43:38.084Z,94.15
2022-10-02T05:53:48.851Z,94.05
2022-10-02T06:04:02.999Z,93.76
2022-10-02T06:14:15.617Z,93.05
2022-10-02T06:24:26.611Z,92.12
2022-10-02T06:34:32.316Z,91.38
2022-10-02T06:44:47.663Z,90.19
2022-10-02T06:55:08.959Z,87.73
2022-10-02T07:05:41.113Z,87.67
2022-10-02T07:16:12.841Z,87.71
2022-10-02T07:26:47.891Z,87.63
2022-10-02T07:37:07.277Z,87.21
2022-10-02T07:47:23.884Z,86.59
2022-10-02T07:57:39.622Z,85.95
2022-10-02T08:07:50.788Z,84.01
2022-10-02T08:18:16.398Z,82.97
2022-10-02T08:28:30.419Z,82.78
2022-10-02T08:38:42.421Z,82.63
2022-10-02T08:49:29.804Z,81.22
2022-10-02T09:00:09.672Z,79.79
2022-10-02T09:10:59.163Z,77.50
2022-10-02T09:21:17.870Z,74.16
2022-10-02T09:32:07.676Z,73.88
2022-10-02T09:42:35.807Z,72.46
2022-10-02T09:53:11.298Z,70.75
2022-10-02T10:03:43.662Z,70.32
2022-10-02T10:14:21.826Z,69.42
2022-10-02T10:24:45.884Z,68.68
2022-10-02T10:35:21.556Z,68.42
2022-10-02T10:45:42.884Z,68.12
2022-10-02T10:56:19.492Z,68.67
2022-10-02T11:06:41.822Z,69.26
2022-10-02T11:17:09.147Z,69.28
2022-10-02T11:27:32.104Z,69.65
2022-10-02T11:37:54.545Z,70.80
2022-10-02T11:48:33.422Z,73.36
2022-10-02T11:58:55.130Z,74.46
2022-10-02T12:09:11.503Z,74.17
2022-10-02T12:19:40.053Z,73.87
2022-10-02T12:30:04.191Z,74.03
2022-10-02T12:40:22.260Z,72.60
2022-10-02T12:50:42.049Z,70.95
2022-10-02T13:01:15.295Z,70.02
2022-10-02T13:11:32.988Z,69.81
2022-10-02T13:21:51.858Z,69.46
2022-10-02T13:32:08.474Z,68.65
2022-10-02T13:42:30.161Z,68.59
2022-10-02T13:52:49.957Z,68.60
2022-10-02T14:03:09.913Z,68.60
2022-10-02T14:13:33.895Z,68.72
2022-10-02T14:23:55.590Z,69.27
2022-10-02T14:34:20.797Z,69.12
2022-10-02T14:44:45.705Z,68.77
2022-10-02T14:55:17.131Z,68.33
2022-10-02T15:05:40.043Z,68.25
2022-10-02T15:16:11.505Z,68.82
2022-10-02T15:26:33.230Z,69.54
2022-10-02T15:36:52.429Z,70.40
2022-10-02T15:47:10.430Z,71.52
2022-10-02T15:57:28.859Z,72.85
2022-10-02T16:07:57.980Z,74.16
2022-10-02T16:18:25.606Z,75.16
2022-10-02T16:28:43.812Z,76.09
2022-10-02T16:38:59.773Z,76.76
2022-10-02T16:49:20.108Z,77.15
2022-10-02T16:59:29.363Z,77.77
2022-10-02T17:09:45.219Z,78.50
2022-10-02T17:19:54.743Z,79.31
2022-10-02T17:30:09.258Z,80.04
2022-10-02T17:40:20.020Z,80.95
2022-10-02T17:51:00.379Z,81.63
2022-10-02T18:01:13.867Z,81.90
2022-10-02T18:11:38.114Z,81.57
2022-10-02T18:21:53.893Z,81.28
2022-10-02T18:32:15.323Z,81.44
2022-10-02T18:42:41.026Z,81.26
2022-10-02T18:53:15.414Z,81.46
2022-10-02T19:03:32.040Z,81.73
2022-10-02T19:13:43.365Z,81.68
2022-10-02T19:23:53.674Z,82.28
2022-10-02T19:34:03.516Z,82.60
2022-10-02T19:44:19.713Z,83.58
2022-10-02T19:54:31.869Z,83.76
2022-10-02T20:04:37.780Z,84.29
2022-10-02T20:14:47.654Z,84.56
2022-10-02T20:25:00.851Z,84.79
2022-10-02T20:35:12.903Z,85.07
2022-10-02T20:45:19.756Z,85.47
2022-10-02T20:55:35.785Z,86.25
2022-10-02T21:06:08.484Z,86.63
2022-10-02T21:16:44.540Z,87.04
2022-10-02T21:27:20.405Z,87.47
2022-10-02T21:37:36.747Z,88.14
2022-10-02T21:48:16.039Z,88.38
2022-10-02T21:58:59.320Z,89.23
2022-10-02T22:09:27.667Z,89.97
2022-10-02T22:19:58.013Z,89.93
2022-10-02T22:30:04.339Z,90.03
2022-10-02T22:40:15.467Z,90.83
2022-10-02T22:50:30.515Z,91.07
2022-10-02T23:00:51.196Z,90.89
2022-10-02T23:11:05.907Z,91.27
2022-10-02T23:21:26.053Z,91.59
2022-10-02T23:31:38.288Z,92.18
2022-10-02T23:41:52.143Z,92.89
2022-10-02T23:52:14.563Z,92.57
